Time;durP1;ratioP1;P1;durP2;ratioP2;P2;SDS_P1;SDS_P2;PMS_P1;PMS_P2;Temp;Humidity;BMP_temperature;BMP_pressure;BME280_temperature;BME280_humidity;BME280_pressure;Samples;Min_cycle;Max_cycle;Signal;HPM_P1;HPM_P2
2022/07/25 00:00:40;;;;;;;4.60;4.20;;;19.30;99.90;;;;;;493294;241;28772;-68
2022/07/25 00:02:41;;;;;;;4.87;4.47;;;19.30;99.90;;;;;;493254;241;28780;-70
2022/07/25 00:04:42;;;;;;;4.87;4.47;;;19.40;99.90;;;;;;493257;241;28677;-68
2022/07/25 00:06:43;;;;;;;4.80;4.40;;;19.40;99.90;;;;;;493221;241;28681;-68
2022/07/25 00:08:45;;;;;;;6.93;4.33;;;19.50;99.90;;;;;;493281;241;28718;-70
2022/07/25 00:10:46;;;;;;;4.80;4.40;;;19.50;99.90;;;;;;493276;241;28720;-68
2022/07/25 00:12:47;;;;;;;4.40;4.00;;;19.40;99.90;;;;;;493271;241;28713;-70
2022/07/25 00:14:48;;;;;;;4.70;4.30;;;19.40;99.90;;;;;;493261;241;29917;-68
2022/07/25 00:16:50;;;;;;;4.70;4.30;;;19.30;99.90;;;;;;493199;241;29231;-69
2022/07/25 00:18:51;;;;;;;4.80;4.40;;;19.20;99.90;;;;;;493301;241;29220;-70
2022/07/25 00:20:52;;;;;;;4.53;4.13;;;19.20;99.90;;;;;;493250;241;28681;-68
2022/07/25 00:22:53;;;;;;;4.90;4.40;;;19.10;99.90;;;;;;493261;241;28728;-68
2022/07/25 00:24:55;;;;;;;4.47;4.07;;;18.90;99.90;;;;;;493251;241;28761;-68
2022/07/25 00:26:56;;;;;;;4.43;4.13;;;18.90;99.90;;;;;;493235;241;28722;-70
2022/07/25 00:28:57;;;;;;;4.90;4.50;;;18.80;99.90;;;;;;493268;241;28811;-71
2022/07/25 00:30:58;;;;;;;4.97;4.53;;;18.70;99.90;;;;;;493254;241;28693;-68
2022/07/25 00:33:00;;;;;;;4.83;4.43;;;18.80;99.90;;;;;;493267;241;28721;-69
2022/07/25 00:35:01;;;;;;;4.73;4.33;;;18.70;99.90;;;;;;493192;241;28677;-69
2022/07/25 00:37:02;;;;;;;4.57;4.17;;;18.80;99.90;;;;;;493214;241;28690;-68
2022/07/25 00:39:04;;;;;;;5.07;4.67;;;18.80;99.90;;;;;;493273;241;28712;-71
2022/07/25 00:41:05;;;;;;;5.20;4.80;;;18.80;99.90;;;;;;493247;241;28681;-68
2022/07/25 00:43:06;;;;;;;5.33;4.83;;;18.90;99.90;;;;;;493275;241;28804;-70
2022/07/25 00:45:07;;;;;;;4.70;4.30;;;18.90;99.90;;;;;;493263;241;29054;-68
2022/07/25 00:47:09;;;;;;;4.83;4.43;;;18.90;99.90;;;;;;493208;241;28685;-68
2022/07/25 00:49:10;;;;;;;5.17;4.67;;;18.90;99.90;;;;;;493253;241;29176;-70
2022/07/25 00:51:11;;;;;;;4.70;4.30;;;18.80;99.90;;;;;;493270;241;29242;-69
2022/07/25 00:53:12;;;;;;;5.27;4.87;;;18.80;99.90;;;;;;493273;241;29199;-69
2022/07/25 00:55:14;;;;;;;5.03;4.63;;;18.80;99.90;;;;;;493257;241;29080;-68
2022/07/25 00:57:15;;;;;;;5.13;4.73;;;18.70;99.90;;;;;;493218;241;28670;-68
2022/07/25 00:59:16;;;;;;;5.10;4.70;;;18.70;99.90;;;;;;493280;241;28712;-71
2022/07/25 01:01:17;;;;;;;5.60;5.00;;;18.70;99.90;;;;;;493250;241;28759;-68
2022/07/25 01:03:19;;;;;;;5.00;4.50;;;18.70;99.90;;;;;;493277;241;28724;-68
2022/07/25 01:05:20;;;;;;;5.00;4.60;;;18.80;99.90;;;;;;493290;241;28756;-68
2022/07/25 01:07:21;;;;;;;4.67;4.37;;;18.70;99.90;;;;;;493234;241;28689;-69
2022/07/25 01:09:22;;;;;;;4.60;4.20;;;18.60;99.90;;;;;;493291;241;29141;-70
2022/07/25 01:11:24;;;;;;;5.03;4.63;;;18.50;99.90;;;;;;493259;241;28681;-69
2022/07/25 01:13:25;;;;;;;4.60;4.20;;;18.50;99.90;;;;;;493257;241;29361;-69
2022/07/25 01:15:26;;;;;;;5.00;4.50;;;18.50;99.90;;;;;;493241;241;29916;-68
2022/07/25 01:17:27;;;;;;;5.27;4.87;;;18.50;99.90;;;;;;493203;241;29149;-67
2022/07/25 01:19:29;;;;;;;5.30;4.80;;;18.50;99.90;;;;;;493298;241;29185;-72
2022/07/25 01:21:30;;;;;;;5.30;4.90;;;18.50;99.90;;;;;;493120;241;28702;-68
2022/07/25 01:23:31;;;;;;;4.83;4.43;;;18.60;99.90;;;;;;493254;241;28701;-69
2022/07/25 01:25:32;;;;;;;5.00;4.60;;;18.50;99.90;;;;;;493243;241;28753;-68
2022/07/25 01:27:34;;;;;;;5.60;4.67;;;18.50;99.90;;;;;;493213;241;28689;-68
2022/07/25 01:29:35;;;;;;;6.43;4.90;;;18.40;99.90;;;;;;493252;241;28731;-70
2022/07/25 01:31:36;;;;;;;6.80;5.20;;;18.30;99.90;;;;;;493250;241;28823;-68
2022/07/25 01:33:37;;;;;;;5.23;4.73;;;18.20;99.90;;;;;;493254;241;28754;-69
2022/07/25 01:35:39;;;;;;;5.30;4.90;;;18.30;99.90;;;;;;493125;241;29607;-68
2022/07/25 01:37:40;;;;;;;5.03;4.63;;;18.30;99.90;;;;;;493207;241;28699;-68
2022/07/25 01:39:41;;;;;;;4.97;4.57;;;18.30;99.90;;;;;;493258;241;28808;-70
2022/07/25 01:41:42;;;;;;;5.17;4.67;;;18.30;99.90;;;;;;493238;241;28698;-67
2022/07/25 01:43:44;;;;;;;5.03;4.63;;;18.20;99.90;;;;;;493237;241;29196;-69
2022/07/25 01:45:45;;;;;;;5.10;4.63;;;18.20;99.90;;;;;;493230;241;30028;-72
2022/07/25 01:47:46;;;;;;;5.37;4.87;;;18.30;99.90;;;;;;493218;241;29199;-68
2022/07/25 01:49:47;;;;;;;4.70;4.30;;;18.40;99.90;;;;;;493260;241;28791;-70
2022/07/25 01:51:49;;;;;;;5.20;4.80;;;18.30;99.90;;;;;;493250;241;28678;-68
2022/07/25 01:53:50;;;;;;;5.23;4.83;;;18.30;99.90;;;;;;493236;241;28736;-69
2022/07/25 01:55:51;;;;;;;5.13;4.73;;;18.20;99.90;;;;;;493235;241;28797;-72
2022/07/25 01:57:52;;;;;;;5.10;4.70;;;18.20;99.90;;;;;;493207;241;28677;-68
2022/07/25 01:59:54;;;;;;;5.23;4.67;;;18.30;99.90;;;;;;493239;241;28796;-68
2022/07/25 02:01:55;;;;;;;5.07;4.60;;;18.30;99.90;;;;;;493231;241;28693;-68
2022/07/25 02:03:56;;;;;;;5.43;5.00;;;18.30;99.90;;;;;;493251;241;28720;-68
2022/07/25 02:05:57;;;;;;;4.90;4.40;;;18.30;99.90;;;;;;493252;241;29168;-72
2022/07/25 02:07:59;;;;;;;5.20;4.80;;;18.20;99.90;;;;;;493202;241;29246;-68
2022/07/25 02:10:00;;;;;;;4.83;4.43;;;18.10;99.90;;;;;;493262;241;29276;-69
2022/07/25 02:12:01;;;;;;;5.00;4.60;;;18.10;99.90;;;;;;493261;241;29137;-68
2022/07/25 02:14:02;;;;;;;5.20;4.80;;;18.10;99.90;;;;;;493263;241;28800;-68
2022/07/25 02:16:04;;;;;;;4.73;4.33;;;18.10;99.90;;;;;;493243;241;28789;-77
2022/07/25 02:18:05;;;;;;;5.10;4.70;;;18.10;99.90;;;;;;493251;241;28682;-68
2022/07/25 02:20:06;;;;;;;7.80;5.07;;;18.10;99.90;;;;;;493270;241;28744;-70
2022/07/25 02:22:07;;;;;;;4.60;4.20;;;18.20;99.90;;;;;;493244;241;28692;-69
2022/07/25 02:24:09;;;;;;;4.50;4.10;;;18.20;99.90;;;;;;493244;241;28721;-68
2022/07/25 02:26:10;;;;;;;5.10;4.70;;;18.20;99.90;;;;;;493210;241;28726;-71
2022/07/25 02:28:11;;;;;;;5.37;4.87;;;18.10;99.90;;;;;;493235;241;28697;-68
2022/07/25 02:30:12;;;;;;;5.77;4.90;;;18.10;99.90;;;;;;493257;241;28787;-69
2022/07/25 02:32:14;;;;;;;5.70;5.20;;;18.10;99.90;;;;;;493248;241;29152;-68
2022/07/25 02:34:15;;;;;;;5.07;4.67;;;18.00;99.90;;;;;;493266;241;29245;-68
2022/07/25 02:36:16;;;;;;;5.10;4.70;;;18.10;99.90;;;;;;493091;241;29302;-71
2022/07/25 02:38:20;;;;;;;5.37;4.87;;;18.00;99.90;;;;;;493289;241;28685;-69
2022/07/25 02:40:22;;;;;;;5.23;4.83;;;18.00;99.90;;;;;;493282;241;28674;-68
2022/07/25 02:42:23;;;;;;;5.67;5.17;;;18.00;99.90;;;;;;493237;241;28803;-69
2022/07/25 02:44:24;;;;;;;5.23;4.83;;;18.00;99.90;;;;;;493204;241;28673;-68
2022/07/25 02:46:25;;;;;;;5.73;5.23;;;17.90;99.90;;;;;;493199;241;28678;-68
2022/07/25 02:48:27;;;;;;;6.20;5.70;;;18.00;99.90;;;;;;493242;241;28791;-72
2022/07/25 02:50:28;;;;;;;5.70;5.20;;;17.90;99.90;;;;;;493229;241;28777;-68
2022/07/25 02:52:29;;;;;;;5.40;4.90;;;17.90;99.90;;;;;;493218;241;28729;-70
2022/07/25 02:54:30;;;;;;;5.70;5.20;;;17.80;99.90;;;;;;493206;241;28724;-68
2022/07/25 02:56:32;;;;;;;5.70;5.17;;;17.80;99.90;;;;;;493188;241;28756;-68
2022/07/25 02:58:33;;;;;;;5.67;5.17;;;17.70;99.90;;;;;;493246;241;28721;-72
2022/07/25 03:00:34;;;;;;;5.30;4.80;;;17.70;99.90;;;;;;493234;241;28685;-68
2022/07/25 03:02:36;;;;;;;5.40;4.90;;;17.60;99.90;;;;;;493211;241;28728;-68
2022/07/25 03:04:37;;;;;;;5.33;4.83;;;17.70;99.90;;;;;;493253;241;28788;-68
2022/07/25 03:06:38;;;;;;;5.40;4.90;;;17.70;99.90;;;;;;493210;241;28669;-69
2022/07/25 03:08:39;;;;;;;5.30;4.80;;;17.70;99.90;;;;;;493271;241;28752;-72
2022/07/25 03:10:41;;;;;;;5.37;4.87;;;17.70;99.90;;;;;;493263;241;28738;-68
2022/07/25 03:12:42;;;;;;;5.60;5.10;;;17.80;99.90;;;;;;493260;241;28716;-69
2022/07/25 03:14:43;;;;;;;4.80;4.40;;;17.80;99.90;;;;;;493247;241;28765;-68
2022/07/25 03:16:44;;;;;;;5.50;5.00;;;17.70;99.90;;;;;;493204;241;29173;-68
2022/07/25 03:18:46;;;;;;;5.33;4.83;;;17.70;99.90;;;;;;493283;241;29204;-74
2022/07/25 03:20:47;;;;;;;9.60;5.57;;;17.70;99.90;;;;;;493246;241;29189;-67
2022/07/25 03:22:48;;;;;;;5.70;5.20;;;17.70;99.90;;;;;;493172;241;29215;-69
2022/07/25 03:24:49;;;;;;;5.20;4.77;;;17.70;99.90;;;;;;493254;241;28673;-68
2022/07/25 03:26:51;;;;;;;5.37;4.97;;;17.70;99.90;;;;;;493222;241;28795;-68
2022/07/25 03:28:52;;;;;;;4.90;4.50;;;17.70;99.90;;;;;;493298;241;28740;-73
2022/07/25 03:30:53;;;;;;;5.60;5.10;;;17.70;99.90;;;;;;493262;241;28652;-69
2022/07/25 03:32:54;;;;;;;5.93;5.40;;;17.70;99.90;;;;;;493279;241;28810;-69
2022/07/25 03:34:56;;;;;;;5.10;4.70;;;17.70;99.90;;;;;;493159;241;28693;-68
2022/07/25 03:36:57;;;;;;;5.93;5.33;;;17.70;99.90;;;;;;493206;241;28729;-68
2022/07/25 03:38:58;;;;;;;5.67;5.17;;;17.70;99.90;;;;;;493294;241;28848;-70
2022/07/25 03:40:59;;;;;;;6.00;5.47;;;17.70;99.90;;;;;;493282;241;29174;-68
2022/07/25 03:43:01;;;;;;;5.87;5.37;;;17.80;99.90;;;;;;493213;241;29281;-70
2022/07/25 03:45:02;;;;;;;5.30;4.90;;;17.80;99.90;;;;;;493251;241;29934;-68
2022/07/25 03:47:03;;;;;;;6.07;5.40;;;17.70;99.90;;;;;;493210;241;29130;-68
2022/07/25 03:49:04;;;;;;;5.70;5.20;;;17.70;99.90;;;;;;493277;241;28706;-72
2022/07/25 03:51:06;;;;;;;5.90;5.40;;;17.80;99.90;;;;;;493276;241;28677;-68
2022/07/25 03:53:07;;;;;;;5.77;5.30;;;17.80;99.90;;;;;;493279;241;28710;-69
2022/07/25 03:55:08;;;;;;;5.83;5.33;;;17.70;99.90;;;;;;493261;241;28678;-68
2022/07/25 03:57:11;;;;;;;5.87;5.10;;;17.80;99.90;;;;;;493235;241;28690;-69
2022/07/25 03:59:11;;;;;;;6.23;5.70;;;17.80;99.90;;;;;;493225;241;28770;-71
2022/07/25 04:01:12;;;;;;;6.20;5.63;;;17.80;99.90;;;;;;493274;241;28690;-67
2022/07/25 04:03:13;;;;;;;5.53;5.07;;;17.80;99.90;;;;;;493248;241;28725;-69
2022/07/25 04:05:14;;;;;;;6.13;5.53;;;17.80;99.90;;;;;;493248;241;28760;-67
2022/07/25 04:07:16;;;;;;;5.70;5.20;;;17.80;99.90;;;;;;493136;241;29215;-68
2022/07/25 04:09:17;;;;;;;6.00;5.50;;;17.70;99.90;;;;;;493254;241;29298;-70
2022/07/25 04:11:18;;;;;;;5.63;5.03;;;17.70;99.90;;;;;;491806;241;29506;-70
2022/07/25 04:13:19;;;;;;;5.97;5.47;;;17.70;99.90;;;;;;492272;241;28710;-69
2022/07/25 04:15:21;;;;;;;7.17;5.33;;;17.70;99.90;;;;;;492994;241;28694;-68
2022/07/25 04:17:22;;;;;;;6.80;6.20;;;17.70;99.90;;;;;;493234;241;28679;-69
2022/07/25 04:19:23;;;;;;;5.13;4.63;;;17.70;99.90;;;;;;493287;241;28804;-71
2022/07/25 04:21:24;;;;;;;6.33;5.83;;;17.70;99.90;;;;;;493265;241;28720;-67
2022/07/25 04:23:26;;;;;;;5.53;4.93;;;17.80;99.90;;;;;;493253;241;28726;-69
2022/07/25 04:25:27;;;;;;;5.87;5.27;;;17.70;99.90;;;;;;493225;241;28740;-68
2022/07/25 04:27:28;;;;;;;6.30;5.70;;;17.80;99.90;;;;;;493076;241;28690;-69
2022/07/25 04:29:29;;;;;;;5.70;5.20;;;17.90;99.90;;;;;;493263;241;28733;-70
2022/07/25 04:31:31;;;;;;;5.90;5.40;;;18.00;99.90;;;;;;493269;241;29137;-68
2022/07/25 04:33:32;;;;;;;6.20;5.60;;;18.00;99.90;;;;;;493241;241;29214;-69
2022/07/25 04:35:33;;;;;;;5.63;5.00;;;18.00;99.90;;;;;;493062;241;29144;-68
2022/07/25 04:37:36;;;;;;;5.90;5.40;;;18.00;99.90;;;;;;493028;241;29150;-69
2022/07/25 04:39:36;;;;;;;6.73;6.07;;;18.10;99.90;;;;;;493201;241;29303;-73
2022/07/25 04:41:37;;;;;;;6.40;5.77;;;18.20;99.90;;;;;;493236;241;29196;-69
2022/07/25 04:43:38;;;;;;;6.70;6.00;;;18.20;99.90;;;;;;493259;241;29289;-70
2022/07/25 04:45:39;;;;;;;5.90;5.30;;;18.30;99.90;;;;;;493247;241;28663;-69
2022/07/25 04:47:41;;;;;;;6.10;5.60;;;18.40;99.90;;;;;;493097;241;28751;-70
2022/07/25 04:49:42;;;;;;;6.30;5.70;;;18.50;99.90;;;;;;493257;241;28710;-72
2022/07/25 04:51:43;;;;;;;6.20;5.67;;;18.50;99.90;;;;;;493284;241;28678;-69
2022/07/25 04:53:44;;;;;;;5.63;5.13;;;18.60;99.90;;;;;;493282;241;28754;-69
2022/07/25 04:55:46;;;;;;;6.27;5.77;;;18.70;99.90;;;;;;493244;241;28689;-69
2022/07/25 04:57:47;;;;;;;6.00;5.40;;;18.90;99.90;;;;;;493157;241;28722;-69
2022/07/25 04:59:48;;;;;;;6.00;5.50;;;19.00;99.90;;;;;;493274;241;28723;-71
2022/07/25 05:01:49;;;;;;;6.57;5.90;;;19.20;99.90;;;;;;493284;241;28696;-69
2022/07/25 05:03:51;;;;;;;7.50;6.80;;;19.50;99.90;;;;;;493252;241;29275;-69
2022/07/25 05:05:52;;;;;;;6.17;5.67;;;19.50;99.90;;;;;;493268;241;29883;-72
2022/07/25 05:07:53;;;;;;;6.67;6.10;;;19.40;99.90;;;;;;493182;241;29170;-69
2022/07/25 05:09:55;;;;;;;6.87;6.27;;;19.40;99.90;;;;;;493292;241;28723;-71
2022/07/25 05:11:56;;;;;;;7.00;6.40;;;19.40;99.90;;;;;;493279;241;28667;-69
2022/07/25 05:13:57;;;;;;;6.20;5.60;;;19.50;99.90;;;;;;493301;241;28790;-70
2022/07/25 05:15:58;;;;;;;6.03;5.43;;;19.50;99.90;;;;;;493287;241;28716;-69
2022/07/25 05:17:59;;;;;;;6.23;5.63;;;19.60;99.90;;;;;;493230;241;28753;-70
2022/07/25 05:20:01;;;;;;;6.20;5.70;;;19.60;99.90;;;;;;493299;241;28796;-71
2022/07/25 05:22:02;;;;;;;7.20;6.50;;;19.60;99.90;;;;;;493277;241;28698;-69
2022/07/25 05:24:03;;;;;;;5.97;5.47;;;19.70;99.90;;;;;;493267;241;28736;-70
2022/07/25 05:26:04;;;;;;;6.13;5.63;;;19.70;99.90;;;;;;493221;241;28823;-71
2022/07/25 05:28:06;;;;;;;6.73;6.13;;;19.70;99.90;;;;;;493256;241;29268;-70
2022/07/25 05:30:07;;;;;;;5.93;5.37;;;19.70;99.90;;;;;;493295;241;29199;-72
2022/07/25 05:32:08;;;;;;;6.23;5.73;;;19.80;99.90;;;;;;493272;241;29149;-69
2022/07/25 05:34:10;;;;;;;6.30;5.77;;;19.90;99.90;;;;;;493264;241;28711;-69
2022/07/25 05:36:11;;;;;;;6.23;5.73;;;20.00;99.90;;;;;;493063;241;28786;-69
2022/07/25 05:38:12;;;;;;;5.73;5.23;;;20.10;99.90;;;;;;493268;241;28710;-70
2022/07/25 05:40:13;;;;;;;5.40;5.00;;;20.30;99.90;;;;;;493269;241;28710;-72
2022/07/25 05:42:14;;;;;;;6.53;5.97;;;20.60;99.90;;;;;;493255;241;28756;-69
2022/07/25 05:44:16;;;;;;;6.20;5.60;;;20.80;99.90;;;;;;493250;241;28719;-70
2022/07/25 05:46:17;;;;;;;6.40;5.87;;;20.90;99.90;;;;;;493214;241;28813;-69
2022/07/25 05:48:18;;;;;;;6.10;5.60;;;21.00;99.90;;;;;;493283;241;28690;-69
2022/07/25 05:50:20;;;;;;;5.63;5.07;;;21.00;99.90;;;;;;493267;241;28723;-70
2022/07/25 05:52:21;;;;;;;5.63;5.13;;;21.00;99.90;;;;;;493265;241;29399;-70
2022/07/25 05:54:22;;;;;;;5.43;5.00;;;21.00;99.90;;;;;;493243;241;29248;-69
2022/07/25 05:56:23;;;;;;;6.27;5.70;;;21.00;99.90;;;;;;493218;241;29950;-70
2022/07/25 05:58:25;;;;;;;5.60;5.13;;;20.90;99.90;;;;;;493280;241;29215;-69
2022/07/25 06:00:26;;;;;;;6.23;5.73;;;20.70;99.90;;;;;;493299;241;28791;-71
2022/07/25 06:02:27;;;;;;;6.13;5.63;;;20.90;99.90;;;;;;493270;241;28812;-69
2022/07/25 06:04:28;;;;;;;6.03;5.53;;;21.00;99.90;;;;;;493251;241;28713;-70
2022/07/25 06:06:31;;;;;;;6.23;5.63;;;21.10;99.90;;;;;;493208;241;28698;-72
2022/07/25 06:08:32;;;;;;;5.63;5.20;;;21.20;99.90;;;;;;493191;241;28693;-71
2022/07/25 06:10:32;;;;;;;6.30;5.80;;;21.40;99.90;;;;;;493165;241;28725;-72
2022/07/25 06:12:33;;;;;;;6.07;5.57;;;21.70;99.90;;;;;;493288;241;28748;-70
2022/07/25 06:14:35;;;;;;;5.70;5.30;;;21.80;99.90;;;;;;493289;241;28805;-70
2022/07/25 06:16:36;;;;;;;6.27;5.67;;;21.90;99.90;;;;;;493165;241;30062;-69
2022/07/25 06:18:37;;;;;;;6.40;5.80;;;22.00;99.90;;;;;;493261;241;29214;-69
2022/07/25 06:20:38;;;;;;;6.20;5.70;;;22.00;99.90;;;;;;493278;241;29184;-73
2022/07/25 06:22:40;;;;;;;6.00;5.43;;;22.00;99.90;;;;;;493251;241;30438;-70
2022/07/25 06:24:41;;;;;;;5.67;5.27;;;22.10;99.90;;;;;;493274;241;28813;-70
2022/07/25 06:26:42;;;;;;;5.70;5.20;;;22.20;99.90;;;;;;493209;241;28686;-70
2022/07/25 06:28:43;;;;;;;6.57;5.97;;;22.20;99.90;;;;;;493272;241;28783;-70
2022/07/25 06:30:45;;;;;;;5.80;5.27;;;22.30;99.90;;;;;;493311;241;28799;-72
2022/07/25 06:32:46;;;;;;;5.57;5.07;;;22.30;99.90;;;;;;493266;241;28673;-72
2022/07/25 06:34:47;;;;;;;6.00;5.50;;;22.40;99.90;;;;;;493123;241;28708;-69
2022/07/25 06:36:48;;;;;;;5.50;5.10;;;22.40;99.90;;;;;;493240;241;28719;-70
2022/07/25 06:38:50;;;;;;;6.17;5.63;;;22.50;99.90;;;;;;493311;241;28700;-70
2022/07/25 06:40:51;;;;;;;5.53;5.13;;;22.50;99.90;;;;;;493316;241;28718;-72
2022/07/25 06:42:52;;;;;;;5.30;4.90;;;22.60;99.90;;;;;;493317;241;29137;-69
2022/07/25 06:44:53;;;;;;;5.20;4.80;;;22.70;99.90;;;;;;493292;241;29267;-71
2022/07/25 06:46:55;;;;;;;5.37;4.97;;;22.80;99.90;;;;;;493250;241;29894;-71
2022/07/25 06:48:56;;;;;;;5.50;5.10;;;22.90;99.90;;;;;;493324;241;28692;-69
2022/07/25 06:50:57;;;;;;;6.23;5.63;;;23.10;99.90;;;;;;493305;241;28713;-72
2022/07/25 06:52:58;;;;;;;6.10;5.50;;;23.20;99.90;;;;;;493284;241;28682;-69
2022/07/25 06:55:00;;;;;;;6.27;5.77;;;23.30;99.90;;;;;;493275;241;28726;-70
2022/07/25 06:57:01;;;;;;;6.37;5.80;;;23.30;99.90;;;;;;493225;241;28726;-70
2022/07/25 06:59:02;;;;;;;5.90;5.40;;;23.50;99.90;;;;;;493268;241;28773;-71
2022/07/25 07:01:03;;;;;;;6.23;5.63;;;23.50;99.90;;;;;;493307;241;28725;-72
2022/07/25 07:03:05;;;;;;;5.87;5.37;;;23.50;99.90;;;;;;493275;241;28792;-70
2022/07/25 07:05:06;;;;;;;6.57;5.90;;;23.50;99.90;;;;;;493270;241;29198;-70
2022/07/25 07:07:07;;;;;;;5.47;4.97;;;23.50;99.90;;;;;;493211;241;30023;-70
2022/07/25 07:09:08;;;;;;;5.97;5.47;;;23.60;99.90;;;;;;493273;241;29144;-70
2022/07/25 07:11:10;;;;;;;5.97;5.47;;;23.70;99.90;;;;;;493277;241;28808;-71
2022/07/25 07:13:11;;;;;;;5.90;5.40;;;23.80;99.90;;;;;;493264;241;28678;-70
2022/07/25 07:15:12;;;;;;;6.37;5.77;;;23.80;99.90;;;;;;493270;241;28761;-70
2022/07/25 07:17:13;;;;;;;6.37;5.77;;;23.80;99.90;;;;;;493188;241;28762;-69
2022/07/25 07:19:15;;;;;;;7.33;6.63;;;23.90;99.90;;;;;;493283;241;28754;-69
2022/07/25 07:21:16;;;;;;;6.90;6.30;;;24.10;99.90;;;;;;493285;241;28798;-70
2022/07/25 07:23:17;;;;;;;7.20;6.50;;;24.20;99.90;;;;;;493245;241;28724;-70
2022/07/25 07:25:19;;;;;;;6.20;5.60;;;24.20;99.90;;;;;;493267;241;28711;-70
2022/07/25 07:27:22;;;;;;;6.90;6.30;;;24.20;99.90;;;;;;493151;241;29046;-73
2022/07/25 07:29:21;;;;;;;6.73;6.23;;;24.30;99.90;;;;;;493124;241;29238;-70
2022/07/25 07:31:22;;;;;;;5.30;4.90;;;24.20;99.90;;;;;;493287;241;29245;-70
2022/07/25 07:33:23;;;;;;;6.23;5.73;;;24.20;99.90;;;;;;493294;241;29137;-70
2022/07/25 07:35:25;;;;;;;6.20;5.70;;;24.30;99.90;;;;;;493169;241;29215;-69
2022/07/25 07:37:26;;;;;;;6.90;6.20;;;24.30;99.90;;;;;;493215;241;28718;-70
2022/07/25 07:39:27;;;;;;;6.20;5.70;;;24.50;99.90;;;;;;493294;241;28724;-69
2022/07/25 07:41:28;;;;;;;6.53;5.93;;;24.60;99.90;;;;;;493294;241;28726;-70
2022/07/25 07:43:30;;;;;;;6.40;5.80;;;24.70;99.90;;;;;;493295;241;28683;-70
2022/07/25 07:45:31;;;;;;;7.40;6.53;;;24.70;99.90;;;;;;493273;241;28742;-70
2022/07/25 07:47:32;;;;;;;7.00;6.40;;;24.70;99.90;;;;;;493218;241;29082;-73
2022/07/25 07:49:33;;;;;;;6.93;6.23;;;24.80;99.90;;;;;;493288;241;28782;-69
2022/07/25 07:51:35;;;;;;;6.37;5.87;;;24.90;99.90;;;;;;493285;241;28726;-70
2022/07/25 07:55:56;;;;;;;6.43;5.93;;;24.80;99.90;;;;;;493285;241;28690;-70
2022/07/25 07:57:58;;;;;;;7.47;6.37;;;25.00;99.90;;;;;;493233;241;28737;-70
2022/07/25 07:59:58;;;;;;;6.50;5.90;;;24.90;99.90;;;;;;493221;241;28668;-69
2022/07/25 08:01:59;;;;;;;7.40;6.70;;;25.00;99.90;;;;;;493282;241;28704;-70
2022/07/25 08:04:01;;;;;;;6.70;5.90;;;25.10;99.90;;;;;;493298;241;29243;-73
2022/07/25 08:06:02;;;;;;;6.60;6.00;;;25.30;99.90;;;;;;493250;241;28825;-70
2022/07/25 08:08:03;;;;;;;7.60;6.10;;;25.30;99.90;;;;;;493275;241;29096;-70
2022/07/25 08:10:04;;;;;;;6.30;5.80;;;25.40;99.90;;;;;;493280;241;29202;-70
2022/07/25 08:12:06;;;;;;;7.27;6.57;;;25.50;99.90;;;;;;493253;241;29248;-70
2022/07/25 08:14:07;;;;;;;7.70;7.00;;;25.50;99.90;;;;;;493288;241;29400;-74
2022/07/25 08:16:10;;;;;;;6.77;6.13;;;25.60;99.90;;;;;;493212;241;28858;-70
2022/07/25 08:18:09;;;;;;;6.90;6.30;;;25.60;99.90;;;;;;493137;241;28794;-71
2022/07/25 08:20:11;;;;;;;6.40;5.87;;;25.60;99.90;;;;;;493256;241;28716;-70
2022/07/25 08:22:12;;;;;;;7.13;6.53;;;25.70;99.90;;;;;;493271;241;28795;-70
2022/07/25 08:24:13;;;;;;;8.00;5.63;;;25.70;99.90;;;;;;493252;241;29081;-75
2022/07/25 08:26:14;;;;;;;6.90;6.30;;;25.80;99.90;;;;;;493239;241;28746;-69
2022/07/25 08:28:16;;;;;;;7.60;6.80;;;25.90;99.90;;;;;;493291;241;28717;-70
2022/07/25 08:30:17;;;;;;;7.73;6.63;;;25.80;99.90;;;;;;493270;241;28734;-70
2022/07/25 08:32:18;;;;;;;9.80;6.40;;;26.00;99.90;;;;;;493260;241;28752;-71
2022/07/25 08:34:21;;;;;;;9.70;6.93;;;26.00;99.90;;;;;;493284;241;29280;-73
2022/07/25 08:36:21;;;;;;;12.70;6.80;;;26.00;99.90;;;;;;492968;241;29714;-70
2022/07/25 08:38:22;;;;;;;7.77;7.00;;;26.10;99.90;;;;;;493261;241;29291;-70
2022/07/25 08:40:23;;;;;;;7.23;6.63;;;26.10;99.90;;;;;;493283;241;28680;-69
2022/07/25 08:42:24;;;;;;;11.33;7.20;;;26.20;99.90;;;;;;493270;241;28814;-70
2022/07/25 08:44:26;;;;;;;11.50;6.83;;;26.30;99.90;;;;;;493264;241;28719;-70
2022/07/25 08:46:28;;;;;;;7.47;6.77;;;26.30;99.90;;;;;;493223;241;28788;-70
2022/07/25 08:48:29;;;;;;;7.90;6.80;;;26.40;99.90;;;;;;493190;241;28723;-71
2022/07/25 08:50:29;;;;;;;7.40;6.70;;;26.50;99.90;;;;;;493246;241;28795;-70
2022/07/25 08:52:34;;;;;;;7.37;6.67;;;26.60;99.90;;;;;;493271;241;28714;-70
2022/07/25 08:54:32;;;;;;;6.73;6.20;;;26.60;99.90;;;;;;493059;241;28794;-72
2022/07/25 08:56:33;;;;;;;6.63;5.87;;;26.70;99.90;;;;;;493231;241;29147;-70
2022/07/25 08:58:35;;;;;;;7.13;6.17;;;26.70;99.90;;;;;;493284;241;29219;-70
2022/07/25 09:00:36;;;;;;;7.40;6.70;;;26.70;99.90;;;;;;493255;241;29232;-69
2022/07/25 09:02:37;;;;;;;6.80;6.10;;;26.80;99.90;;;;;;493243;241;29197;-70
2022/07/25 09:04:38;;;;;;;6.60;6.10;;;27.00;99.90;;;;;;493240;241;28719;-73
2022/07/25 09:06:39;;;;;;;6.67;6.07;;;27.00;99.90;;;;;;493223;241;28779;-70
2022/07/25 09:08:41;;;;;;;6.90;6.20;;;27.20;99.90;;;;;;493225;241;28750;-71
2022/07/25 09:10:42;;;;;;;6.30;5.80;;;27.60;99.90;;;;;;493266;241;28674;-70
2022/07/25 09:12:43;;;;;;;7.60;5.70;;;27.70;99.90;;;;;;493270;241;28812;-70
2022/07/25 09:14:46;;;;;;;7.20;6.30;;;28.00;99.90;;;;;;493278;241;29092;-72
2022/07/25 09:16:46;;;;;;;6.57;6.00;;;28.20;99.90;;;;;;493084;241;28804;-70
2022/07/25 09:18:47;;;;;;;6.80;6.20;;;28.00;99.90;;;;;;493250;241;28758;-70
2022/07/25 09:20:48;;;;;;;5.73;5.23;;;28.20;99.90;;;;;;493281;241;29239;-69
2022/07/25 09:22:49;;;;;;;6.87;6.27;;;28.20;99.90;;;;;;493268;241;29306;-71
2022/07/25 09:24:51;;;;;;;7.03;6.43;;;28.40;99.90;;;;;;493266;241;29297;-70
2022/07/25 09:26:52;;;;;;;6.73;6.10;;;28.60;99.90;;;;;;493241;241;29221;-70
2022/07/25 09:28:54;;;;;;;6.00;5.50;;;28.60;99.90;;;;;;490984;241;35905;-70
2022/07/25 09:30:54;;;;;;;5.93;5.47;;;28.60;99.90;;;;;;493234;241;27441;-69
2022/07/25 09:32:56;;;;;;;6.13;5.63;;;28.40;99.90;;;;;;493274;241;28700;-70
2022/07/25 09:34:57;;;;;;;6.70;5.47;;;28.30;99.90;;;;;;493164;241;28785;-70
2022/07/25 09:36:58;;;;;;;5.43;4.93;;;28.30;99.90;;;;;;493238;241;28796;-69
2022/07/25 09:39:00;;;;;;;6.50;5.90;;;28.50;99.90;;;;;;493274;241;28716;-71
2022/07/25 09:41:01;;;;;;;5.77;5.00;;;28.50;99.90;;;;;;493267;241;29123;-69
2022/07/25 09:43:02;;;;;;;5.73;5.33;;;28.50;99.90;;;;;;493262;241;28728;-69
2022/07/25 09:45:03;;;;;;;6.20;5.60;;;28.60;99.90;;;;;;493253;241;29953;-70
2022/07/25 09:47:05;;;;;;;6.00;5.50;;;28.70;99.90;;;;;;493221;241;29158;-69
2022/07/25 09:49:08;;;;;;;6.50;5.90;;;28.90;99.90;;;;;;493260;241;29184;-71
2022/07/25 09:51:07;;;;;;;6.93;6.00;;;28.90;99.90;;;;;;493110;241;29182;-70
2022/07/25 09:53:08;;;;;;;6.53;5.93;;;29.00;99.90;;;;;;493237;241;28717;-70
2022/07/25 09:55:10;;;;;;;5.70;5.20;;;28.80;99.90;;;;;;493277;241;28806;-69
2022/07/25 09:57:11;;;;;;;6.10;5.50;;;28.60;99.90;;;;;;493222;241;28674;-70
2022/07/25 09:59:12;;;;;;;6.40;5.90;;;28.70;99.90;;;;;;493280;241;28710;-70
2022/07/25 10:01:13;;;;;;;7.83;6.00;;;28.60;99.90;;;;;;493270;241;28757;-70
2022/07/25 10:03:15;;;;;;;6.10;5.60;;;28.60;99.90;;;;;;493278;241;28794;-70
2022/07/25 10:05:16;;;;;;;6.50;5.90;;;28.80;99.90;;;;;;493262;241;28815;-72
2022/07/25 10:07:17;;;;;;;6.10;5.60;;;28.90;99.90;;;;;;493215;241;28705;-69
2022/07/25 10:09:18;;;;;;;5.40;4.93;;;29.00;99.90;;;;;;493260;241;28808;-70
2022/07/25 10:11:20;;;;;;;5.63;5.13;;;29.00;99.90;;;;;;493261;241;28677;-69
2022/07/25 10:13:21;;;;;;;5.67;5.20;;;29.20;99.90;;;;;;493282;241;28725;-70
2022/07/25 10:15:22;;;;;;;6.37;5.80;;;29.40;99.90;;;;;;493311;241;28720;-71
2022/07/25 10:17:23;;;;;;;6.50;5.80;;;29.50;99.90;;;;;;493228;241;28782;-70
2022/07/25 10:19:25;;;;;;;6.77;6.07;;;29.60;99.90;;;;;;493292;240;29275;-70
2022/07/25 10:21:27;;;;;;;5.87;5.37;;;29.60;99.90;;;;;;493282;241;29137;-69
2022/07/25 10:23:27;;;;;;;7.07;6.10;;;29.80;99.90;;;;;;493211;241;29328;-70
2022/07/25 10:25:28;;;;;;;5.77;5.20;;;30.00;99.90;;;;;;493301;241;28781;-73
2022/07/25 10:27:30;;;;;;;6.50;5.90;;;30.00;99.90;;;;;;493238;241;28676;-69
2022/07/25 10:29:31;;;;;;;7.80;5.50;;;30.10;99.90;;;;;;493281;241;28807;-70
2022/07/25 10:31:32;;;;;;;7.30;4.90;;;30.20;99.90;;;;;;493287;241;28767;-70